createdAt,value
2023-01-13T00:00:48.450Z,1.50
2023-01-13T00:05:50.237Z,1.58
2023-01-13T00:10:51.988Z,1.20
2023-01-13T00:15:58.767Z,1.63
2023-01-13T00:21:12.579Z,1.58
2023-01-13T00:26:20.448Z,1.50
2023-01-13T00:31:22.290Z,1.17
2023-01-13T00:36:24.090Z,2.40
2023-01-13T00:41:26.858Z,3.13
2023-01-13T00:46:28.693Z,3.80
2023-01-13T00:51:30.500Z,2.40
2023-01-13T00:56:40.271Z,3.58
2023-01-13T01:01:43.026Z,3.05
2023-01-13T01:06:44.940Z,2.70
2023-01-13T01:11:46.748Z,3.03
2023-01-13T01:16:48.502Z,3.08
2023-01-13T01:21:50.339Z,2.33
2023-01-13T01:26:52.164Z,2.17
2023-01-13T01:31:54.049Z,2.55
2023-01-13T01:36:55.793Z,2.42
2023-01-13T01:42:16.022Z,1.98
2023-01-13T01:47:19.075Z,1.83
2023-01-13T01:52:32.140Z,2.58
2023-01-13T01:57:46.896Z,1.60
2023-01-13T02:02:50.769Z,1.73
2023-01-13T02:07:54.496Z,2.97
2023-01-13T02:13:04.822Z,2.13
2023-01-13T02:18:30.768Z,2.65
2023-01-13T02:24:29.037Z,2.05
2023-01-13T02:30:08.545Z,2.38
2023-01-13T02:35:28.084Z,1.48
2023-01-13T02:40:35.777Z,2.35
2023-01-13T02:45:43.618Z,1.30
2023-01-13T02:50:56.238Z,1.73
2023-01-13T02:56:00.166Z,2.08
2023-01-13T03:01:02.207Z,2.03
2023-01-13T03:06:36.823Z,1.73
2023-01-13T03:12:10.498Z,2.50
2023-01-13T03:17:18.482Z,2.53
2023-01-13T03:22:38.489Z,2.63
2023-01-13T03:28:08.642Z,1.80
2023-01-13T03:33:16.970Z,2.17
2023-01-13T03:38:28.728Z,2.05
2023-01-13T03:44:00.079Z,1.83
2023-01-13T03:49:04.555Z,2.42
2023-01-13T03:54:11.468Z,2.65
2023-01-13T03:59:18.763Z,1.85
2023-01-13T04:04:29.645Z,1.50
2023-01-13T04:14:39.872Z,1.77
2023-01-13T04:19:41.631Z,1.33
2023-01-13T04:24:43.411Z,2.20
2023-01-13T04:29:46.344Z,1.70
2023-01-13T04:34:48.173Z,1.42
2023-01-13T04:39:49.974Z,1.52
2023-01-13T04:44:51.805Z,2.00
2023-01-13T04:49:53.570Z,1.98
2023-01-13T04:54:55.359Z,2.15
2023-01-13T04:59:57.124Z,1.48
2023-01-13T05:04:59.259Z,1.90
2023-01-13T05:10:01.149Z,2.00
2023-01-13T05:15:21.967Z,2.25
2023-01-13T05:25:27.355Z,2.13
2023-01-13T05:30:33.642Z,1.85
2023-01-13T05:35:37.959Z,1.80
2023-01-13T05:40:59.704Z,1.92
2023-01-13T05:46:09.890Z,2.35
2023-01-13T05:51:13.118Z,1.88
2023-01-13T05:56:17.366Z,2.00
2023-01-13T06:01:19.185Z,1.20
2023-01-13T06:06:21.018Z,2.03
2023-01-13T06:11:22.797Z,2.00
2023-01-13T06:16:24.625Z,2.50
2023-01-13T06:21:26.629Z,1.95
2023-01-13T06:26:31.913Z,1.60
2023-01-13T06:31:38.588Z,1.67
2023-01-13T06:36:52.257Z,2.95
2023-01-13T06:42:13.558Z,2.42
2023-01-13T06:47:15.374Z,2.13
2023-01-13T06:52:17.233Z,2.05
2023-01-13T06:57:19.011Z,2.60
2023-01-13T07:02:21.012Z,2.90
2023-01-13T07:07:23.006Z,3.47
2023-01-13T07:12:24.940Z,3.63
2023-01-13T07:17:26.755Z,2.30
2023-01-13T07:22:28.610Z,2.75
2023-01-13T07:27:30.443Z,2.47
2023-01-13T07:32:33.692Z,2.40
2023-01-13T07:37:37.736Z,2.92
2023-01-13T07:42:58.317Z,2.80
2023-01-13T07:48:00.104Z,1.95
2023-01-13T07:53:02.083Z,1.92
2023-01-13T07:58:03.964Z,3.58
2023-01-13T08:03:06.182Z,2.90
2023-01-13T08:08:08.378Z,2.80
2023-01-13T08:13:22.860Z,2.60
2023-01-13T08:18:24.837Z,4.45
2023-01-13T08:23:26.705Z,2.55
2023-01-13T08:28:28.628Z,3.67
2023-01-13T08:33:30.893Z,4.68
2023-01-13T08:38:34.502Z,2.45
2023-01-13T08:43:36.415Z,2.60
2023-01-13T08:48:38.338Z,2.90
2023-01-13T08:53:40.221Z,2.78
2023-01-13T08:58:42.040Z,3.13
2023-01-13T09:03:44.122Z,2.63
2023-01-13T09:08:46.210Z,3.47
2023-01-13T09:13:48.055Z,3.47
2023-01-13T09:18:49.840Z,2.47
2023-01-13T09:23:51.639Z,2.67
2023-01-13T09:28:53.436Z,3.15
2023-01-13T09:34:13.845Z,3.53
2023-01-13T09:39:16.445Z,2.35
2023-01-13T09:44:25.882Z,2.67
2023-01-13T09:49:37.762Z,2.75
2023-01-13T09:54:45.285Z,2.85
2023-01-13T09:59:48.112Z,2.45
2023-01-13T10:05:03.356Z,2.50
2023-01-13T10:10:12.510Z,2.92
2023-01-13T10:15:24.206Z,2.50
2023-01-13T10:20:45.219Z,3.20
2023-01-13T10:26:02.120Z,3.95
2023-01-13T10:31:15.083Z,3.45
2023-01-13T10:36:21.541Z,3.88
2023-01-13T10:41:27.904Z,2.55
2023-01-13T10:46:31.882Z,2.38
2023-01-13T10:51:39.868Z,3.08
2023-01-13T10:56:44.709Z,3.10
2023-01-13T11:01:53.949Z,3.42
2023-01-13T11:06:56.717Z,3.10
2023-01-13T11:12:00.167Z,3.13
2023-01-13T11:17:25.891Z,3.38
2023-01-13T11:22:37.475Z,3.55
2023-01-13T11:27:56.294Z,2.83
2023-01-13T11:33:10.788Z,2.72
2023-01-13T11:38:49.990Z,2.80
2023-01-13T11:44:17.162Z,3.83
2023-01-13T11:49:38.466Z,3.45
2023-01-13T11:55:15.917Z,3.17
2023-01-13T12:00:22.330Z,3.20
2023-01-13T12:05:38.177Z,2.97
2023-01-13T12:10:49.001Z,3.38
2023-01-13T12:21:23.187Z,2.88
2023-01-13T12:26:25.114Z,3.72
2023-01-13T12:31:28.478Z,3.42
2023-01-13T12:36:52.316Z,3.38
2023-01-13T12:42:26.701Z,3.13
2023-01-13T12:47:40.185Z,2.33
2023-01-13T12:52:45.706Z,2.17
2023-01-13T12:58:05.574Z,3.08
2023-01-13T13:03:19.652Z,3.45
2023-01-13T13:08:35.506Z,2.65
2023-01-13T13:13:47.300Z,2.22
2023-01-13T13:18:50.335Z,2.40
2023-01-13T13:23:55.181Z,3.22
2023-01-13T13:29:29.685Z,3.28
2023-01-13T13:34:55.680Z,3.20
2023-01-13T13:40:16.096Z,2.83
2023-01-13T13:45:40.065Z,3.63
2023-01-13T13:50:49.168Z,3.28
2023-01-13T13:56:02.407Z,2.58
2023-01-13T14:01:05.382Z,2.80
2023-01-13T14:06:07.907Z,1.83
2023-01-13T14:11:32.347Z,3.33
2023-01-13T14:16:36.279Z,2.63
2023-01-13T14:21:38.755Z,2.80
2023-01-13T14:26:40.687Z,2.55
2023-01-13T14:31:43.542Z,3.05
2023-01-13T14:36:50.951Z,2.67
2023-01-13T14:41:53.614Z,3.00
2023-01-13T14:46:58.340Z,2.30
2023-01-13T14:52:16.229Z,2.97
2023-01-13T14:57:25.943Z,1.98
2023-01-13T15:02:31.080Z,2.53
2023-01-13T15:07:33.392Z,3.85
2023-01-13T15:12:41.451Z,3.00
2023-01-13T15:17:43.393Z,2.47
2023-01-13T15:22:45.990Z,2.72
2023-01-13T15:27:51.050Z,2.50
2023-01-13T15:32:55.193Z,1.75
2023-01-13T15:37:57.786Z,1.92
2023-01-13T15:43:18.527Z,2.83
2023-01-13T15:48:21.769Z,2.30
2023-01-13T15:53:23.788Z,2.17
2023-01-13T15:58:28.502Z,2.40
2023-01-13T16:03:30.618Z,2.05
2023-01-13T16:08:34.744Z,2.08
2023-01-13T16:13:37.121Z,2.42
2023-01-13T16:18:38.946Z,2.88
2023-01-13T16:23:41.321Z,2.70
2023-01-13T16:28:43.090Z,1.60
2023-01-13T16:33:45.036Z,2.55
2023-01-13T16:38:47.986Z,2.67
2023-01-13T16:43:49.817Z,2.70
2023-01-13T16:48:56.606Z,1.80
2023-01-13T16:53:58.375Z,2.88
2023-01-13T16:59:08.337Z,3.08
2023-01-13T17:04:16.622Z,3.30
2023-01-13T17:09:20.946Z,2.53
2023-01-13T17:14:23.634Z,2.63
2023-01-13T17:19:25.940Z,4.10
2023-01-13T17:24:30.932Z,2.45
2023-01-13T17:29:32.958Z,3.30
2023-01-13T17:34:34.758Z,4.18
2023-01-13T17:39:36.625Z,4.05
2023-01-13T17:44:39.409Z,3.50
2023-01-13T17:49:41.172Z,2.83
2023-01-13T17:54:43.840Z,3.53
2023-01-13T17:59:47.942Z,4.15
2023-01-13T18:04:49.741Z,3.72
2023-01-13T18:09:51.650Z,3.80
2023-01-13T18:14:53.472Z,3.40
2023-01-13T18:20:13.891Z,4.10
2023-01-13T18:25:34.538Z,4.07
2023-01-13T18:30:36.782Z,3.35
2023-01-13T18:35:39.862Z,3.13
2023-01-13T18:40:45.482Z,3.22
2023-01-13T18:45:51.636Z,3.95
2023-01-13T18:50:53.974Z,3.88
2023-01-13T18:55:55.934Z,3.53
2023-01-13T19:01:05.287Z,4.18
2023-01-13T19:06:11.793Z,4.38
2023-01-13T19:11:14.059Z,5.25
2023-01-13T19:16:17.888Z,3.78
2023-01-13T19:21:20.782Z,4.07
2023-01-13T19:26:22.612Z,3.67
2023-01-13T19:31:24.482Z,4.00
2023-01-13T19:36:27.067Z,4.57
2023-01-13T19:41:47.416Z,5.72
2023-01-13T19:46:49.422Z,3.40
2023-01-13T19:51:51.487Z,4.35
2023-01-13T19:56:53.582Z,4.28
2023-01-13T20:01:57.273Z,3.88
2023-01-13T20:06:59.974Z,4.57
2023-01-13T20:12:09.249Z,4.82
2023-01-13T20:17:16.179Z,4.80
2023-01-13T20:22:18.023Z,4.72
2023-01-13T20:27:19.766Z,4.15
2023-01-13T20:32:21.656Z,3.78
2023-01-13T20:37:23.577Z,4.70
2023-01-13T20:42:51.755Z,5.25
2023-01-13T20:47:54.491Z,4.25
2023-01-13T20:52:56.415Z,3.83
2023-01-13T20:57:58.159Z,4.82
2023-01-13T21:03:00.018Z,3.30
2023-01-13T21:08:01.845Z,3.53
2023-01-13T21:13:22.205Z,4.15
2023-01-13T21:18:42.786Z,4.63
2023-01-13T21:23:47.163Z,2.90
2023-01-13T21:28:50.065Z,4.55
2023-01-13T21:33:59.622Z,4.18
2023-01-13T21:39:01.521Z,3.88
2023-01-13T21:44:21.869Z,4.07
2023-01-13T21:49:23.814Z,3.10
2023-01-13T21:54:25.844Z,4.90
2023-01-13T21:59:27.652Z,4.30
2023-01-13T22:04:30.490Z,3.80
2023-01-13T22:09:32.370Z,4.95
2023-01-13T22:14:35.355Z,3.55
2023-01-13T22:19:39.443Z,3.63
2023-01-13T22:24:46.351Z,3.88
2023-01-13T22:29:49.609Z,3.47
2023-01-13T22:34:51.495Z,3.75
2023-01-13T22:39:53.284Z,3.35
2023-01-13T22:44:55.157Z,4.35
2023-01-13T22:49:56.964Z,4.90
2023-01-13T22:55:00.852Z,4.55
2023-01-13T23:00:03.444Z,4.70
2023-01-13T23:05:05.711Z,3.33
2023-01-13T23:10:07.830Z,4.53
2023-01-13T23:15:10.027Z,5.03
2023-01-13T23:20:12.092Z,3.35
2023-01-13T23:25:13.975Z,4.22
2023-01-13T23:30:16.344Z,5.28
2023-01-13T23:35:18.150Z,3.80
2023-01-13T23:40:19.939Z,4.15
2023-01-13T23:45:22.091Z,3.28
2023-01-13T23:50:25.106Z,4.47
2023-01-13T23:55:27.096Z,4.32
